sensor_id;sensor_type;location;lat;lon;timestamp;pressure;altitude;pressure_sealevel;temperature;humidity
61908;BME280;47864;52.526;19.672;2022-09-29T00:00:11;99294.66;;;7.38;100.00
61908;BME280;47864;52.526;19.672;2022-09-29T00:02:13;99296.66;;;7.44;100.00
61908;BME280;47864;52.526;19.672;2022-09-29T00:04:16;99298.31;;;7.45;100.00
61908;BME280;47864;52.526;19.672;2022-09-29T00:06:18;99299.13;;;7.46;100.00
61908;BME280;47864;52.526;19.672;2022-09-29T00:08:22;99286.25;;;7.43;100.00
61908;BME280;47864;52.526;19.672;2022-09-29T00:10:23;99299.31;;;7.60;100.00
61908;BME280;47864;52.526;19.672;2022-09-29T00:12:25;99296.00;;;7.67;100.00
61908;BME280;47864;52.526;19.672;2022-09-29T00:14:28;99291.25;;;7.78;100.00
61908;BME280;47864;52.526;19.672;2022-09-29T00:16:29;99294.19;;;7.83;100.00
61908;BME280;47864;52.526;19.672;2022-09-29T00:18:32;99297.03;;;7.90;100.00
61908;BME280;47864;52.526;19.672;2022-09-29T00:20:35;99287.09;;;7.92;100.00
61908;BME280;47864;52.526;19.672;2022-09-29T00:22:38;99284.78;;;8.05;100.00
61908;BME280;47864;52.526;19.672;2022-09-29T00:24:39;99287.25;;;8.15;100.00
61908;BME280;47864;52.526;19.672;2022-09-29T00:26:41;99282.16;;;8.13;100.00
61908;BME280;47864;52.526;19.672;2022-09-29T00:28:49;99283.63;;;8.08;100.00
61908;BME280;47864;52.526;19.672;2022-09-29T00:30:51;99283.78;;;8.22;100.00
61908;BME280;47864;52.526;19.672;2022-09-29T00:32:52;99282.63;;;8.17;100.00
61908;BME280;47864;52.526;19.672;2022-09-29T00:34:54;99284.59;;;8.23;100.00
61908;BME280;47864;52.526;19.672;2022-09-29T00:36:56;99284.44;;;8.16;100.00
61908;BME280;47864;52.526;19.672;2022-09-29T00:38:58;99282.31;;;8.03;100.00
61908;BME280;47864;52.526;19.672;2022-09-29T00:41:01;99279.16;;;8.08;100.00
61908;BME280;47864;52.526;19.672;2022-09-29T00:43:03;99271.91;;;8.02;100.00
61908;BME280;47864;52.526;19.672;2022-09-29T00:47:16;99290.06;;;8.13;100.00
61908;BME280;47864;52.526;19.672;2022-09-29T00:49:23;99280.66;;;8.11;100.00
61908;BME280;47864;52.526;19.672;2022-09-29T00:51:29;99293.88;;;8.02;100.00
61908;BME280;47864;52.526;19.672;2022-09-29T00:53:33;99289.25;;;7.96;100.00
61908;BME280;47864;52.526;19.672;2022-09-29T00:55:41;99289.25;;;7.72;100.00
61908;BME280;47864;52.526;19.672;2022-09-29T00:57:53;99289.09;;;7.74;100.00
61908;BME280;47864;52.526;19.672;2022-09-29T01:00:09;99293.38;;;7.67;100.00
61908;BME280;47864;52.526;19.672;2022-09-29T01:02:13;99288.44;;;7.63;100.00
61908;BME280;47864;52.526;19.672;2022-09-29T01:04:16;99302.28;;;7.49;100.00
61908;BME280;47864;52.526;19.672;2022-09-29T01:06:27;99300.94;;;7.37;100.00
61908;BME280;47864;52.526;19.672;2022-09-29T01:10:47;99306.22;;;7.45;100.00
61908;BME280;47864;52.526;19.672;2022-09-29T01:12:51;99312.84;;;7.49;100.00
61908;BME280;47864;52.526;19.672;2022-09-29T01:14:53;99309.03;;;7.52;100.00
61908;BME280;47864;52.526;19.672;2022-09-29T01:16:55;99303.91;;;7.58;100.00
61908;BME280;47864;52.526;19.672;2022-09-29T01:18:58;99260.53;;;7.37;100.00
61908;BME280;47864;52.526;19.672;2022-09-29T01:21:33;99307.22;;;7.77;100.00
61908;BME280;47864;52.526;19.672;2022-09-29T01:37:24;99329.53;;;7.82;100.00
61908;BME280;47864;52.526;19.672;2022-09-29T01:39:36;99321.78;;;7.81;100.00
61908;BME280;47864;52.526;19.672;2022-09-29T01:41:58;99324.72;;;7.61;100.00
61908;BME280;47864;52.526;19.672;2022-09-29T01:44:08;99322.06;;;7.61;100.00
61908;BME280;47864;52.526;19.672;2022-09-29T01:46:21;99335.78;;;7.73;100.00
61908;BME280;47864;52.526;19.672;2022-09-29T01:48:32;99329.31;;;7.68;100.00
61908;BME280;47864;52.526;19.672;2022-09-29T01:50:39;99331.00;;;7.77;100.00
61908;BME280;47864;52.526;19.672;2022-09-29T01:52:50;99332.31;;;7.73;100.00
61908;BME280;47864;52.526;19.672;2022-09-29T01:54:59;99331.97;;;7.84;100.00
61908;BME280;47864;52.526;19.672;2022-09-29T01:57:09;99341.91;;;7.90;100.00
61908;BME280;47864;52.526;19.672;2022-09-29T01:59:37;99344.34;;;7.91;100.00
61908;BME280;47864;52.526;19.672;2022-09-29T02:01:43;99331.66;;;7.87;100.00
61908;BME280;47864;52.526;19.672;2022-09-29T02:03:57;99332.97;;;7.91;100.00
61908;BME280;47864;52.526;19.672;2022-09-29T02:06:08;99344.19;;;8.01;100.00
61908;BME280;47864;52.526;19.672;2022-09-29T02:08:39;99349.16;;;8.12;100.00
61908;BME280;47864;52.526;19.672;2022-09-29T02:13:06;99344.34;;;8.08;100.00
61908;BME280;47864;52.526;19.672;2022-09-29T02:15:15;99353.47;;;8.13;100.00
61908;BME280;47864;52.526;19.672;2022-09-29T02:17:25;99361.38;;;8.13;100.00
61908;BME280;47864;52.526;19.672;2022-09-29T02:19:30;99358.56;;;8.15;100.00
61908;BME280;47864;52.526;19.672;2022-09-29T02:21:35;99368.13;;;8.24;100.00
61908;BME280;47864;52.526;19.672;2022-09-29T02:23:37;99368.63;;;8.27;100.00
61908;BME280;47864;52.526;19.672;2022-09-29T02:25:39;99372.41;;;8.25;100.00
61908;BME280;47864;52.526;19.672;2022-09-29T02:27:42;99375.88;;;8.17;100.00
61908;BME280;47864;52.526;19.672;2022-09-29T02:29:44;99382.03;;;8.34;100.00
61908;BME280;47864;52.526;19.672;2022-09-29T02:31:46;99383.00;;;8.41;100.00
61908;BME280;47864;52.526;19.672;2022-09-29T02:33:48;99375.91;;;8.33;100.00
61908;BME280;47864;52.526;19.672;2022-09-29T02:42:31;99387.63;;;8.55;100.00
61908;BME280;47864;52.526;19.672;2022-09-29T02:47:30;99387.63;;;8.55;100.00
61908;BME280;47864;52.526;19.672;2022-09-29T02:52:23;99386.16;;;8.36;100.00
61908;BME280;47864;52.526;19.672;2022-09-29T02:59:19;99392.56;;;8.01;100.00
61908;BME280;47864;52.526;19.672;2022-09-29T03:01:23;99391.06;;;7.99;100.00
61908;BME280;47864;52.526;19.672;2022-09-29T03:03:25;99393.53;;;8.00;100.00
61908;BME280;47864;52.526;19.672;2022-09-29T03:05:27;99390.91;;;8.00;100.00
61908;BME280;47864;52.526;19.672;2022-09-29T03:07:28;99379.88;;;7.97;100.00
61908;BME280;47864;52.526;19.672;2022-09-29T03:09:30;99392.25;;;7.96;100.00
61908;BME280;47864;52.526;19.672;2022-09-29T03:11:32;99384.63;;;8.01;100.00
61908;BME280;47864;52.526;19.672;2022-09-29T03:13:34;99390.06;;;8.00;100.00
61908;BME280;47864;52.526;19.672;2022-09-29T03:15:35;99391.25;;;7.97;100.00
61908;BME280;47864;52.526;19.672;2022-09-29T03:17:38;99391.56;;;8.02;100.00
61908;BME280;47864;52.526;19.672;2022-09-29T03:19:40;99396.19;;;8.00;100.00
61908;BME280;47864;52.526;19.672;2022-09-29T03:21:42;99399.19;;;8.06;100.00
61908;BME280;47864;52.526;19.672;2022-09-29T03:23:44;99390.75;;;8.02;100.00
61908;BME280;47864;52.526;19.672;2022-09-29T03:25:45;99399.50;;;8.02;100.00
61908;BME280;47864;52.526;19.672;2022-09-29T03:27:47;99402.31;;;8.09;100.00
61908;BME280;47864;52.526;19.672;2022-09-29T03:29:49;99396.88;;;8.19;100.00
61908;BME280;47864;52.526;19.672;2022-09-29T03:31:51;99415.34;;;8.11;100.00
61908;BME280;47864;52.526;19.672;2022-09-29T03:33:53;99406.13;;;8.15;100.00
61908;BME280;47864;52.526;19.672;2022-09-29T03:35:54;99414.03;;;8.15;100.00
61908;BME280;47864;52.526;19.672;2022-09-29T03:37:57;99412.69;;;8.02;100.00
61908;BME280;47864;52.526;19.672;2022-09-29T03:40:00;99417.00;;;8.12;100.00
61908;BME280;47864;52.526;19.672;2022-09-29T03:42:01;99415.66;;;8.16;100.00
61908;BME280;47864;52.526;19.672;2022-09-29T03:44:03;99411.41;;;8.07;100.00
61908;BME280;47864;52.526;19.672;2022-09-29T03:46:05;99422.59;;;8.00;100.00
61908;BME280;47864;52.526;19.672;2022-09-29T03:48:07;99419.94;;;8.00;100.00
61908;BME280;47864;52.526;19.672;2022-09-29T03:50:09;99422.94;;;7.97;100.00
61908;BME280;47864;52.526;19.672;2022-09-29T03:52:11;99413.84;;;7.92;100.00
61908;BME280;47864;52.526;19.672;2022-09-29T03:54:13;99430.84;;;7.89;100.00
61908;BME280;47864;52.526;19.672;2022-09-29T03:56:15;99432.50;;;7.98;100.00
61908;BME280;47864;52.526;19.672;2022-09-29T03:58:17;99429.38;;;8.11;100.00
61908;BME280;47864;52.526;19.672;2022-09-29T04:00:19;99422.94;;;7.97;100.00
61908;BME280;47864;52.526;19.672;2022-09-29T04:02:21;99441.44;;;8.14;100.00
61908;BME280;47864;52.526;19.672;2022-09-29T04:04:23;99444.56;;;8.25;100.00
61908;BME280;47864;52.526;19.672;2022-09-29T04:06:25;99432.03;;;8.19;100.00
61908;BME280;47864;52.526;19.672;2022-09-29T04:08:27;99449.06;;;8.33;100.00
61908;BME280;47864;52.526;19.672;2022-09-29T04:10:29;99448.75;;;8.44;100.00
61908;BME280;47864;52.526;19.672;2022-09-29T04:12:31;99454.69;;;8.46;100.00
61908;BME280;47864;52.526;19.672;2022-09-29T04:14:32;99446.25;;;8.51;100.00
61908;BME280;47864;52.526;19.672;2022-09-29T04:16:34;99446.94;;;8.53;100.00
61908;BME280;47864;52.526;19.672;2022-09-29T04:18:36;99449.41;;;8.62;100.00
61908;BME280;47864;52.526;19.672;2022-09-29T04:20:38;99449.25;;;8.56;100.00
61908;BME280;47864;52.526;19.672;2022-09-29T04:22:41;99449.25;;;8.56;100.00
61908;BME280;47864;52.526;19.672;2022-09-29T04:24:44;99443.44;;;8.60;100.00
61908;BME280;47864;52.526;19.672;2022-09-29T04:26:45;99447.44;;;8.56;100.00
61908;BME280;47864;52.526;19.672;2022-09-29T04:28:47;99449.41;;;8.70;100.00
61908;BME280;47864;52.526;19.672;2022-09-29T04:30:49;99461.78;;;8.78;100.00
61908;BME280;47864;52.526;19.672;2022-09-29T04:32:51;99461.78;;;8.86;100.00
61908;BME280;47864;52.526;19.672;2022-09-29T04:34:53;99461.78;;;8.78;100.00
61908;BME280;47864;52.526;19.672;2022-09-29T04:36:55;99469.22;;;8.74;100.00
61908;BME280;47864;52.526;19.672;2022-09-29T04:38:56;99471.84;;;8.83;100.00
61908;BME280;47864;52.526;19.672;2022-09-29T04:40:58;99475.16;;;8.85;100.00
61908;BME280;47864;52.526;19.672;2022-09-29T04:43:01;99477.31;;;8.81;100.00
61908;BME280;47864;52.526;19.672;2022-09-29T04:45:03;99467.88;;;8.87;100.00
61908;BME280;47864;52.526;19.672;2022-09-29T04:47:05;99475.97;;;8.93;100.00
61908;BME280;47864;52.526;19.672;2022-09-29T04:49:07;99473.03;;;8.80;100.00
61908;BME280;47864;52.526;19.672;2022-09-29T04:51:09;99484.22;;;8.90;100.00
61908;BME280;47864;52.526;19.672;2022-09-29T04:53:11;99484.41;;;8.97;100.00
61908;BME280;47864;52.526;19.672;2022-09-29T04:55:13;99483.25;;;8.91;100.00
61908;BME280;47864;52.526;19.672;2022-09-29T04:57:14;99485.41;;;8.88;100.00
61908;BME280;47864;52.526;19.672;2022-09-29T04:59:16;99477.31;;;8.81;100.00
61908;BME280;47864;52.526;19.672;2022-09-29T05:01:18;99483.41;;;8.90;100.00
61908;BME280;47864;52.526;19.672;2022-09-29T05:03:20;99485.91;;;8.83;100.00
61908;BME280;47864;52.526;19.672;2022-09-29T05:05:22;99486.72;;;8.67;100.00
61908;BME280;47864;52.526;19.672;2022-09-29T05:07:23;99504.09;;;8.62;100.00
61908;BME280;47864;52.526;19.672;2022-09-29T05:09:25;99500.78;;;8.68;100.00
61908;BME280;47864;52.526;19.672;2022-09-29T05:11:33;99502.94;;;8.64;100.00
61908;BME280;47864;52.526;19.672;2022-09-29T05:13:36;99502.59;;;8.75;100.00
61908;BME280;47864;52.526;19.672;2022-09-29T05:15:38;99502.59;;;8.75;100.00
61908;BME280;47864;52.526;19.672;2022-09-29T05:17:40;99501.75;;;8.83;100.00
61908;BME280;47864;52.526;19.672;2022-09-29T05:19:41;99514.97;;;8.75;100.00
61908;BME280;47864;52.526;19.672;2022-09-29T05:21:43;99518.47;;;8.75;100.00
61908;BME280;47864;52.526;19.672;2022-09-29T05:23:45;99509.22;;;8.47;100.00
61908;BME280;47864;52.526;19.672;2022-09-29T05:25:47;99523.75;;;8.59;100.00
61908;BME280;47864;52.526;19.672;2022-09-29T05:27:48;99518.28;;;8.53;100.00
61908;BME280;47864;52.526;19.672;2022-09-29T05:29:50;99521.59;;;8.63;100.00
61908;BME280;47864;52.526;19.672;2022-09-29T05:31:52;99525.56;;;8.67;100.00
61908;BME280;47864;52.526;19.672;2022-09-29T05:33:58;99525.41;;;8.76;100.00
61908;BME280;47864;52.526;19.672;2022-09-29T05:36:03;99526.38;;;8.84;100.00
61908;BME280;47864;52.526;19.672;2022-09-29T05:38:05;99515.16;;;8.73;100.00
61908;BME280;47864;52.526;19.672;2022-09-29T05:40:07;99533.50;;;8.83;100.00
61908;BME280;47864;52.526;19.672;2022-09-29T05:42:10;99527.06;;;8.77;100.00
61908;BME280;47864;52.526;19.672;2022-09-29T05:44:12;99522.59;;;8.78;100.00
61908;BME280;47864;52.526;19.672;2022-09-29T05:46:14;99529.69;;;8.77;100.00
61908;BME280;47864;52.526;19.672;2022-09-29T05:48:16;99538.31;;;8.80;100.00
61908;BME280;47864;52.526;19.672;2022-09-29T05:50:18;99536.66;;;8.87;100.00
61908;BME280;47864;52.526;19.672;2022-09-29T05:52:20;99532.03;;;8.81;100.00
61908;BME280;47864;52.526;19.672;2022-09-29T05:54:21;99537.94;;;8.74;100.00
61908;BME280;47864;52.526;19.672;2022-09-29T05:56:26;99544.22;;;8.73;100.00
61908;BME280;47864;52.526;19.672;2022-09-29T05:58:28;99538.94;;;8.82;100.00
61908;BME280;47864;52.526;19.672;2022-09-29T06:00:31;99541.44;;;8.75;100.00
61908;BME280;47864;52.526;19.672;2022-09-29T06:02:33;99544.56;;;8.62;100.00
61908;BME280;47864;52.526;19.672;2022-09-29T06:04:35;99533.31;;;8.44;100.00
61908;BME280;47864;52.526;19.672;2022-09-29T06:06:41;99543.19;;;8.34;100.00
61908;BME280;47864;52.526;19.672;2022-09-29T06:08:43;99550.47;;;8.40;100.00
61908;BME280;47864;52.526;19.672;2022-09-29T06:10:45;99546.19;;;8.39;100.00
61908;BME280;47864;52.526;19.672;2022-09-29T06:12:47;99546.03;;;8.49;100.00
61908;BME280;47864;52.526;19.672;2022-09-29T06:14:49;99552.94;;;8.42;100.00
61908;BME280;47864;52.526;19.672;2022-09-29T06:16:51;99555.13;;;8.46;100.00
61908;BME280;47864;52.526;19.672;2022-09-29T06:18:53;99557.09;;;8.52;100.00
61908;BME280;47864;52.526;19.672;2022-09-29T06:21:05;99554.78;;;8.65;100.00
61908;BME280;47864;52.526;19.672;2022-09-29T06:23:07;99552.97;;;8.66;100.00
61908;BME280;47864;52.526;19.672;2022-09-29T06:25:09;99555.97;;;8.79;100.00
61908;BME280;47864;52.526;19.672;2022-09-29T06:27:10;99555.47;;;8.92;100.00
61908;BME280;47864;52.526;19.672;2022-09-29T06:29:12;99555.81;;;8.81;100.00
61908;BME280;47864;52.526;19.672;2022-09-29T06:31:17;99559.63;;;8.86;100.00
61908;BME280;47864;52.526;19.672;2022-09-29T06:33:19;99562.94;;;8.80;100.00
61908;BME280;47864;52.526;19.672;2022-09-29T06:35:21;99572.31;;;8.83;100.00
61908;BME280;47864;52.526;19.672;2022-09-29T06:37:23;99572.69;;;8.96;100.00
61908;BME280;47864;52.526;19.672;2022-09-29T06:39:26;99574.34;;;9.05;100.00
61908;BME280;47864;52.526;19.672;2022-09-29T06:41:28;99574.66;;;9.10;100.00
61908;BME280;47864;52.526;19.672;2022-09-29T06:43:29;99583.09;;;9.22;100.00
61908;BME280;47864;52.526;19.672;2022-09-29T06:45:31;99577.47;;;9.08;100.00
61908;BME280;47864;52.526;19.672;2022-09-29T06:47:33;99580.78;;;9.10;100.00
61908;BME280;47864;52.526;19.672;2022-09-29T06:49:35;99578.28;;;9.25;100.00
61908;BME280;47864;52.526;19.672;2022-09-29T06:51:37;99581.72;;;9.42;100.00
61908;BME280;47864;52.526;19.672;2022-09-29T06:53:49;99583.06;;;9.38;100.00
61908;BME280;47864;52.526;19.672;2022-09-29T06:55:55;99588.50;;;9.52;100.00
61908;BME280;47864;52.526;19.672;2022-09-29T06:57:57;99586.84;;;9.43;100.00
61908;BME280;47864;52.526;19.672;2022-09-29T07:00:04;99590.63;;;9.57;100.00
61908;BME280;47864;52.526;19.672;2022-09-29T07:02:09;99588.16;;;9.47;100.00
61908;BME280;47864;52.526;19.672;2022-09-29T07:04:11;99592.00;;;9.37;100.00
61908;BME280;47864;52.526;19.672;2022-09-29T07:06:13;99593.13;;;9.42;100.00
61908;BME280;47864;52.526;19.672;2022-09-29T07:08:20;99597.41;;;9.51;100.00
61908;BME280;47864;52.526;19.672;2022-09-29T07:10:22;99603.19;;;9.63;100.00
61908;BME280;47864;52.526;19.672;2022-09-29T07:12:24;99609.78;;;9.75;100.00
61908;BME280;47864;52.526;19.672;2022-09-29T07:14:25;99612.69;;;9.88;100.00
61908;BME280;47864;52.526;19.672;2022-09-29T07:16:27;99608.25;;;9.81;100.00
61908;BME280;47864;52.526;19.672;2022-09-29T07:18:29;99603.69;;;9.59;100.00
61908;BME280;47864;52.526;19.672;2022-09-29T07:20:31;99608.31;;;9.57;100.00
61908;BME280;47864;52.526;19.672;2022-09-29T07:22:33;99609.28;;;9.64;100.00
61908;BME280;47864;52.526;19.672;2022-09-29T07:24:35;99612.94;;;9.79;100.00
61908;BME280;47864;52.526;19.672;2022-09-29T07:26:37;99610.63;;;9.68;100.00
61908;BME280;47864;52.526;19.672;2022-09-29T07:28:39;99612.28;;;9.69;100.00
61908;BME280;47864;52.526;19.672;2022-09-29T07:30:41;99618.34;;;9.85;100.00
61908;BME280;47864;52.526;19.672;2022-09-29T07:32:43;99617.72;;;9.75;100.00
61908;BME280;47864;52.526;19.672;2022-09-29T07:34:58;99616.34;;;9.96;100.00
61908;BME280;47864;52.526;19.672;2022-09-29T07:36:59;99625.47;;;9.85;100.00
61908;BME280;47864;52.526;19.672;2022-09-29T07:39:01;99634.75;;;9.81;100.00
61908;BME280;47864;52.526;19.672;2022-09-29T07:41:08;99636.06;;;9.93;100.00
61908;BME280;47864;52.526;19.672;2022-09-29T07:43:10;99639.59;;;10.16;100.00
61908;BME280;47864;52.526;19.672;2022-09-29T07:45:12;99629.09;;;10.39;100.00
61908;BME280;47864;52.526;19.672;2022-09-29T07:47:14;99637.72;;;10.41;100.00
61908;BME280;47864;52.526;19.672;2022-09-29T07:49:17;99633.31;;;10.56;100.00
61908;BME280;47864;52.526;19.672;2022-09-29T07:51:19;99632.44;;;10.33;100.00
61908;BME280;47864;52.526;19.672;2022-09-29T07:53:21;99634.59;;;10.29;100.00
61908;BME280;47864;52.526;19.672;2022-09-29T07:55:23;99642.13;;;10.18;100.00
61908;BME280;47864;52.526;19.672;2022-09-29T07:57:25;99644.88;;;10.33;100.00
61908;BME280;47864;52.526;19.672;2022-09-29T07:59:27;99651.69;;;10.27;100.00
61908;BME280;47864;52.526;19.672;2022-09-29T08:01:29;99649.53;;;10.22;100.00
61908;BME280;47864;52.526;19.672;2022-09-29T08:03:32;99651.34;;;10.30;100.00
61908;BME280;47864;52.526;19.672;2022-09-29T08:05:34;99650.22;;;10.24;100.00
61908;BME280;47864;52.526;19.672;2022-09-29T08:07:36;99648.88;;;10.28;100.00
61908;BME280;47864;52.526;19.672;2022-09-29T08:09:38;99655.66;;;10.31;100.00
61908;BME280;47864;52.526;19.672;2022-09-29T08:11:42;99650.22;;;10.24;100.00
61908;BME280;47864;52.526;19.672;2022-09-29T08:13:44;99665.25;;;10.32;100.00
61908;BME280;47864;52.526;19.672;2022-09-29T08:15:46;99667.44;;;10.28;100.00
61908;BME280;47864;52.526;19.672;2022-09-29T08:17:51;99669.06;;;10.29;100.00
61908;BME280;47864;52.526;19.672;2022-09-29T08:19:53;99664.00;;;10.20;100.00
61908;BME280;47864;52.526;19.672;2022-09-29T08:21:55;99675.38;;;10.28;100.00
61908;BME280;47864;52.526;19.672;2022-09-29T08:23:57;99669.69;;;10.40;100.00
61908;BME280;47864;52.526;19.672;2022-09-29T08:26:10;99682.31;;;10.38;100.00
61908;BME280;47864;52.526;19.672;2022-09-29T08:28:12;99687.44;;;10.31;100.00
61908;BME280;47864;52.526;19.672;2022-09-29T08:30:26;99683.81;;;10.32;100.00
61908;BME280;47864;52.526;19.672;2022-09-29T08:32:28;99682.94;;;10.40;100.00
61908;BME280;47864;52.526;19.672;2022-09-29T08:34:30;99694.88;;;10.44;100.00
61908;BME280;47864;52.526;19.672;2022-09-29T08:36:32;99692.88;;;10.46;100.00
61908;BME280;47864;52.526;19.672;2022-09-29T08:38:34;99692.03;;;10.53;100.00
61908;BME280;47864;52.526;19.672;2022-09-29T08:40:35;99697.41;;;10.68;100.00
61908;BME280;47864;52.526;19.672;2022-09-29T08:45:12;99705.50;;;10.36;100.00
61908;BME280;47864;52.526;19.672;2022-09-29T08:47:23;99712.47;;;10.37;100.00
61908;BME280;47864;52.526;19.672;2022-09-29T08:50:05;99714.75;;;10.40;100.00
61908;BME280;47864;52.526;19.672;2022-09-29T08:52:15;99721.56;;;10.42;100.00
61908;BME280;47864;52.526;19.672;2022-09-29T08:54:35;99715.84;;;10.61;100.00
61908;BME280;47864;52.526;19.672;2022-09-29T08:56:41;99715.25;;;10.43;100.00
61908;BME280;47864;52.526;19.672;2022-09-29T08:58:43;99716.72;;;10.54;100.00
61908;BME280;47864;52.526;19.672;2022-09-29T09:03:26;99723.28;;;10.66;100.00
61908;BME280;47864;52.526;19.672;2022-09-29T09:06:13;99725.44;;;10.71;100.00
61908;BME280;47864;52.526;19.672;2022-09-29T09:20:35;99729.56;;;10.65;100.00
61908;BME280;47864;52.526;19.672;2022-09-29T09:25:19;99732.91;;;10.98;100.00
61908;BME280;47864;52.526;19.672;2022-09-29T09:27:30;99742.00;;;11.03;100.00
61908;BME280;47864;52.526;19.672;2022-09-29T09:29:41;99739.16;;;11.05;100.00
61908;BME280;47864;52.526;19.672;2022-09-29T09:32:10;99744.91;;;11.17;100.00
61908;BME280;47864;52.526;19.672;2022-09-29T09:36:37;99750.28;;;11.31;100.00
61908;BME280;47864;52.526;19.672;2022-09-29T09:39:01;99745.59;;;11.11;100.00
61908;BME280;47864;52.526;19.672;2022-09-29T09:41:06;99742.13;;;10.71;100.00
61908;BME280;47864;52.526;19.672;2022-09-29T09:43:22;99753.31;;;10.58;100.00
61908;BME280;47864;52.526;19.672;2022-09-29T09:45:33;99740.72;;;10.60;100.00
61908;BME280;47864;52.526;19.672;2022-09-29T09:47:50;99733.81;;;10.43;100.00
61908;BME280;47864;52.526;19.672;2022-09-29T09:54:13;99758.56;;;10.75;100.00
61908;BME280;47864;52.526;19.672;2022-09-29T10:01:16;99771.28;;;11.18;100.00
61908;BME280;47864;52.526;19.672;2022-09-29T10:03:19;99776.66;;;11.33;100.00
61908;BME280;47864;52.526;19.672;2022-09-29T10:05:23;99767.63;;;11.42;100.00
61908;BME280;47864;52.526;19.672;2022-09-29T10:07:29;99778.47;;;11.32;100.00
61908;BME280;47864;52.526;19.672;2022-09-29T10:09:31;99782.44;;;11.36;100.00
61908;BME280;47864;52.526;19.672;2022-09-29T10:11:33;99784.22;;;11.44;100.00
61908;BME280;47864;52.526;19.672;2022-09-29T10:13:35;99782.09;;;11.39;100.00
61908;BME280;47864;52.526;19.672;2022-09-29T10:15:41;99775.44;;;11.43;100.00
61908;BME280;47864;52.526;19.672;2022-09-29T10:17:49;99786.22;;;11.42;100.00
61908;BME280;47864;52.526;19.672;2022-09-29T10:20:01;99788.88;;;11.42;100.00
61908;BME280;47864;52.526;19.672;2022-09-29T10:22:21;99781.78;;;11.34;100.00
61908;BME280;47864;52.526;19.672;2022-09-29T10:24:27;99785.66;;;11.24;100.00
61908;BME280;47864;52.526;19.672;2022-09-29T10:26:37;99793.50;;;11.17;100.00
61908;BME280;47864;52.526;19.672;2022-09-29T10:29:14;99800.22;;;11.36;100.00
61908;BME280;47864;52.526;19.672;2022-09-29T10:31:36;99791.38;;;11.43;100.00
61908;BME280;47864;52.526;19.672;2022-09-29T10:33:46;99795.13;;;11.49;100.00
61908;BME280;47864;52.526;19.672;2022-09-29T10:35:50;99787.75;;;11.36;100.00
61908;BME280;47864;52.526;19.672;2022-09-29T10:38:24;99792.97;;;11.22;100.00
61908;BME280;47864;52.526;19.672;2022-09-29T10:40:27;99789.22;;;11.39;100.00
61908;BME280;47864;52.526;19.672;2022-09-29T10:42:34;99802.75;;;11.52;100.00
61908;BME280;47864;52.526;19.672;2022-09-29T10:44:38;99799.09;;;11.22;100.00
61908;BME280;47864;52.526;19.672;2022-09-29T10:46:53;99803.63;;;11.14;100.00
61908;BME280;47864;52.526;19.672;2022-09-29T10:49:09;99799.56;;;11.34;100.00
61908;BME280;47864;52.526;19.672;2022-09-29T10:51:19;99806.03;;;11.31;100.00
61908;BME280;47864;52.526;19.672;2022-09-29T10:53:35;99809.34;;;11.02;100.00
61908;BME280;47864;52.526;19.672;2022-09-29T10:55:47;99807.00;;;11.07;100.00
61908;BME280;47864;52.526;19.672;2022-09-29T10:57:51;99811.59;;;11.14;100.00
61908;BME280;47864;52.526;19.672;2022-09-29T10:59:55;99809.22;;;11.27;100.00
61908;BME280;47864;52.526;19.672;2022-09-29T11:02:00;99814.44;;;11.43;100.00
61908;BME280;47864;52.526;19.672;2022-09-29T11:04:05;99818.09;;;11.65;100.00
61908;BME280;47864;52.526;19.672;2022-09-29T11:06:14;99822.22;;;11.75;100.00
61908;BME280;47864;52.526;19.672;2022-09-29T11:08:16;99828.94;;;11.86;100.00
61908;BME280;47864;52.526;19.672;2022-09-29T11:10:34;99821.94;;;12.08;100.00
61908;BME280;47864;52.526;19.672;2022-09-29T11:12:36;99829.56;;;12.11;100.00
61908;BME280;47864;52.526;19.672;2022-09-29T11:16:52;99836.50;;;11.97;100.00
61908;BME280;47864;52.526;19.672;2022-09-29T11:19:11;99843.94;;;12.02;100.00
61908;BME280;47864;52.526;19.672;2022-09-29T11:23:53;99846.34;;;11.89;100.00
61908;BME280;47864;52.526;19.672;2022-09-29T11:26:20;99838.88;;;11.92;100.00
61908;BME280;47864;52.526;19.672;2022-09-29T11:28:38;99836.56;;;11.89;100.00
61908;BME280;47864;52.526;19.672;2022-09-29T11:33:31;99840.84;;;12.13;100.00
61908;BME280;47864;52.526;19.672;2022-09-29T11:35:53;99838.03;;;12.29;100.00
61908;BME280;47864;52.526;19.672;2022-09-29T11:40:36;99837.13;;;12.37;100.00
61908;BME280;47864;52.526;19.672;2022-09-29T11:42:59;99840.78;;;12.21;100.00
61908;BME280;47864;52.526;19.672;2022-09-29T11:45:06;99844.56;;;12.27;100.00
61908;BME280;47864;52.526;19.672;2022-09-29T11:54:39;99855.03;;;12.05;99.05
61908;BME280;47864;52.526;19.672;2022-09-29T12:00:08;99849.00;;;12.11;100.00
61908;BME280;47864;52.526;19.672;2022-09-29T12:06:53;99846.59;;;12.39;100.00
61908;BME280;47864;52.526;19.672;2022-09-29T12:09:18;99856.47;;;12.31;100.00
61908;BME280;47864;52.526;19.672;2022-09-29T12:16:35;99854.78;;;12.15;99.48
61908;BME280;47864;52.526;19.672;2022-09-29T12:18:47;99854.66;;;12.31;96.92
61908;BME280;47864;52.526;19.672;2022-09-29T12:20:53;99847.81;;;12.51;96.98
61908;BME280;47864;52.526;19.672;2022-09-29T12:22:57;99851.66;;;12.49;92.78
61908;BME280;47864;52.526;19.672;2022-09-29T12:25:00;99848.81;;;12.50;96.14
61908;BME280;47864;52.526;19.672;2022-09-29T12:27:07;99855.88;;;12.43;96.45
61908;BME280;47864;52.526;19.672;2022-09-29T12:29:32;99850.75;;;12.71;94.05
61908;BME280;47864;52.526;19.672;2022-09-29T12:31:39;99849.94;;;12.71;93.47
61908;BME280;47864;52.526;19.672;2022-09-29T12:33:47;99855.16;;;12.64;96.56